createdAt,value
2019-04-23T00:02:19.759Z,65.70
2019-04-23T00:04:50.928Z,66.00
2019-04-23T00:07:35.702Z,66.10
2019-04-23T00:10:03.498Z,64.50
2019-04-23T00:12:37.760Z,63.50
2019-04-23T00:17:37.363Z,65.60
2019-04-23T00:20:07.835Z,65.60
2019-04-23T00:28:10.282Z,65.60
2019-04-23T00:30:43.189Z,65.30
2019-04-23T00:33:12.399Z,67.70
2019-04-23T00:35:41.721Z,65.70
2019-04-23T00:38:10.474Z,65.70
2019-04-23T00:43:18.986Z,66.00
2019-04-23T00:45:50.303Z,65.40
2019-04-23T00:48:31.238Z,66.70
2019-04-23T00:50:58.609Z,68.00
2019-04-23T00:53:25.240Z,68.20
2019-04-23T00:56:02.640Z,68.90
2019-04-23T00:58:36.588Z,66.00
2019-04-23T01:00:59.196Z,66.30
2019-04-23T01:03:25.420Z,67.40
2019-04-23T01:06:21.174Z,67.20
2019-04-23T01:08:36.886Z,67.10
2019-04-23T01:13:42.655Z,66.50
2019-04-23T01:19:24.579Z,68.70
2019-04-23T01:21:19.827Z,65.40
2019-04-23T01:24:00.320Z,65.20
2019-04-23T01:26:50.294Z,66.10
2019-04-23T01:29:34.082Z,65.50
2019-04-23T01:31:57.347Z,67.10
2019-04-23T01:34:31.303Z,67.50
2019-04-23T01:36:56.040Z,67.90
2019-04-23T01:39:32.908Z,66.60
2019-04-23T01:42:13.173Z,68.20
2019-04-23T01:44:42.491Z,67.30
2019-04-23T01:47:07.796Z,67.00
2019-04-23T01:49:50.343Z,68.30
2019-04-23T01:52:16.367Z,66.30
2019-04-23T01:54:48.364Z,66.00
2019-04-23T01:57:17.037Z,66.60
2019-04-23T01:59:49.040Z,64.60
2019-04-23T02:02:20.685Z,66.20
2019-04-23T02:04:52.642Z,65.70
2019-04-23T02:07:29.559Z,65.50
2019-04-23T02:10:12.767Z,65.50
2019-04-23T02:15:03.697Z,66.70
2019-04-23T02:17:31.188Z,66.30
2019-04-23T02:20:14.162Z,65.40
2019-04-23T02:22:47.919Z,64.40
2019-04-23T02:25:30.340Z,65.10
2019-04-23T02:27:56.224Z,65.30
2019-04-23T02:30:40.104Z,64.90
2019-04-23T02:35:42.785Z,64.10
2019-04-23T02:40:46.694Z,63.60
2019-04-23T02:43:13.332Z,63.90
2019-04-23T02:45:48.487Z,63.30
2019-04-23T02:58:28.282Z,62.80
2019-04-23T03:01:10.978Z,62.60
2019-04-23T03:03:35.137Z,62.30
2019-04-23T03:13:41.326Z,62.60
2019-04-23T03:16:48.182Z,62.20
2019-04-23T03:18:51.605Z,62.00
2019-04-23T03:21:41.075Z,61.90
2019-04-23T03:37:20.295Z,62.80
2019-04-23T03:39:40.271Z,63.20
2019-04-23T03:42:02.910Z,62.50
2019-04-23T03:44:39.707Z,62.20
2019-04-23T03:47:06.653Z,62.80
2019-04-23T03:49:43.794Z,62.40
2019-04-23T03:52:16.039Z,62.20
2019-04-23T03:59:49.813Z,62.30
2019-04-23T04:02:31.363Z,62.50
2019-04-23T04:04:45.301Z,62.30
2019-04-23T04:07:29.359Z,62.40
2019-04-23T04:09:47.937Z,62.50
2019-04-23T04:12:35.301Z,62.60
2019-04-23T04:15:01.199Z,62.60
2019-04-23T04:17:28.289Z,62.30
2019-04-23T04:19:56.402Z,62.80
2019-04-23T04:22:37.379Z,62.60
2019-04-23T04:25:02.875Z,63.10
2019-04-23T04:27:42.389Z,62.70
2019-04-23T04:32:36.697Z,63.60
2019-04-23T04:40:29.571Z,64.80
2019-04-23T04:42:48.974Z,64.70
2019-04-23T04:45:25.553Z,66.10
2019-04-23T04:47:45.448Z,66.30
2019-04-23T04:50:35.021Z,66.50
2019-04-23T04:55:21.055Z,68.70
2019-04-23T04:57:56.669Z,68.70
2019-04-23T05:00:32.908Z,67.20
2019-04-23T05:03:10.730Z,68.70
2019-04-23T05:10:46.838Z,67.10
2019-04-23T05:13:22.357Z,67.80
2019-04-23T05:15:37.205Z,66.50
2019-04-23T05:18:28.843Z,66.70
2019-04-23T05:23:21.076Z,65.70
2019-04-23T05:26:08.547Z,65.90
2019-04-23T05:28:24.580Z,65.60
2019-04-23T05:30:52.007Z,66.10
2019-04-23T05:33:21.906Z,66.00
2019-04-23T05:36:12.742Z,66.50
2019-04-23T05:38:37.426Z,66.30
2019-04-23T05:41:10.351Z,65.90
2019-04-23T05:43:38.108Z,65.60
2019-04-23T05:46:13.025Z,64.80
2019-04-23T05:48:40.363Z,65.20
2019-04-23T05:51:31.143Z,65.00
2019-04-23T05:56:13.189Z,64.50
2019-04-23T06:01:51.142Z,65.00
2019-04-23T06:04:03.667Z,65.00
2019-04-23T06:06:37.945Z,65.00
2019-04-23T06:09:03.892Z,64.60
2019-04-23T06:11:45.231Z,64.50
2019-04-23T06:14:19.000Z,64.80
2019-04-23T06:21:56.128Z,64.80
2019-04-23T06:24:16.293Z,66.30
2019-04-23T06:29:22.512Z,67.20
2019-04-23T06:31:50.931Z,68.90
2019-04-23T06:34:23.383Z,69.80
2019-04-23T06:36:51.140Z,71.00
2019-04-23T06:39:26.025Z,72.00
2019-04-23T06:41:55.193Z,70.10
2019-04-23T06:44:30.838Z,69.90
2019-04-23T06:47:03.113Z,71.90
2019-04-23T06:49:37.647Z,71.30
2019-04-23T06:54:45.924Z,72.20
2019-04-23T06:57:14.875Z,74.20
2019-04-23T06:59:42.531Z,73.70
2019-04-23T07:02:18.723Z,74.20
2019-04-23T07:04:55.441Z,71.30
2019-04-23T07:07:41.036Z,73.00
2019-04-23T07:09:44.068Z,72.50
2019-04-23T07:12:21.855Z,72.40
2019-04-23T07:14:55.432Z,72.00
2019-04-23T07:17:34.541Z,74.70
2019-04-23T07:19:58.137Z,75.10
2019-04-23T07:22:29.091Z,72.50
2019-04-23T07:25:00.444Z,73.70
2019-04-23T07:27:33.366Z,73.90
2019-04-23T07:30:08.713Z,74.30
2019-04-23T07:32:35.778Z,73.30
2019-04-23T07:35:13.767Z,71.70
2019-04-23T07:37:48.880Z,72.60
2019-04-23T07:40:27.017Z,73.80
2019-04-23T07:43:08.746Z,73.50
2019-04-23T07:45:35.272Z,72.80
2019-04-23T07:48:16.429Z,73.20
2019-04-23T07:53:31.372Z,72.30
2019-04-23T08:01:05.478Z,71.80
2019-04-23T08:03:27.385Z,70.40
2019-04-23T08:06:01.016Z,70.50
2019-04-23T08:08:30.225Z,71.20
2019-04-23T08:11:25.856Z,71.20
2019-04-23T08:16:21.855Z,69.00
2019-04-23T08:18:49.521Z,69.10
2019-04-23T08:23:55.495Z,68.60
2019-04-23T08:26:50.945Z,68.60
2019-04-23T08:29:15.428Z,69.10
2019-04-23T08:31:52.723Z,68.60
2019-04-23T08:36:57.635Z,68.80
2019-04-23T08:39:26.536Z,68.10
2019-04-23T08:42:10.569Z,68.50
2019-04-23T08:52:21.543Z,67.00
2019-04-23T08:54:51.857Z,66.60
2019-04-23T08:57:21.534Z,66.60
2019-04-23T08:59:57.383Z,66.30
2019-04-23T09:05:00.018Z,67.00
2019-04-23T09:07:29.766Z,67.00
2019-04-23T09:10:07.794Z,67.50
2019-04-23T09:12:36.701Z,67.30
2019-04-23T09:15:13.008Z,67.00
2019-04-23T09:17:41.099Z,66.40
2019-04-23T09:20:18.642Z,66.40
2019-04-23T09:22:38.826Z,66.30
2019-04-23T09:25:20.288Z,67.40
2019-04-23T09:27:47.109Z,67.90
2019-04-23T09:30:18.799Z,69.80
2019-04-23T09:32:53.971Z,69.40
2019-04-23T09:35:30.914Z,69.70
2019-04-23T09:38:17.765Z,69.50
2019-04-23T09:41:22.184Z,67.70
2019-04-23T09:44:02.836Z,68.20
2019-04-23T09:46:37.765Z,67.50
2019-04-23T09:49:09.331Z,66.60
2019-04-23T09:51:51.172Z,66.70
2019-04-23T09:54:16.287Z,65.30
2019-04-23T09:56:50.988Z,65.40
2019-04-23T09:59:25.627Z,65.70
2019-04-23T10:01:42.486Z,65.10
2019-04-23T10:04:07.382Z,65.10
2019-04-23T10:06:32.094Z,64.10
2019-04-23T10:09:02.630Z,64.00
2019-04-23T10:11:34.600Z,63.60
2019-04-23T10:14:06.069Z,64.20
2019-04-23T10:16:37.004Z,63.00
2019-04-23T10:19:08.021Z,63.30
2019-04-23T10:21:39.451Z,64.60
2019-04-23T10:24:09.712Z,65.00
2019-04-23T10:26:39.980Z,66.70
2019-04-23T10:29:11.921Z,66.90
2019-04-23T10:31:42.536Z,67.30
2019-04-23T10:34:14.817Z,68.80
2019-04-23T10:36:44.987Z,70.00
2019-04-23T10:39:21.515Z,70.00
2019-04-23T10:41:48.816Z,70.50
2019-04-23T10:44:23.671Z,71.80
2019-04-23T10:47:37.095Z,70.40
2019-04-23T10:50:40.322Z,70.40
2019-04-23T10:53:21.438Z,73.10
2019-04-23T10:55:41.033Z,71.10
2019-04-23T10:58:08.520Z,71.60
2019-04-23T11:00:44.844Z,71.10
2019-04-23T11:03:32.003Z,70.50
2019-04-23T11:08:17.459Z,71.60
2019-04-23T11:10:50.273Z,71.90
2019-04-23T11:13:31.398Z,71.90
2019-04-23T11:16:36.823Z,71.80
2019-04-23T11:18:48.969Z,72.60
2019-04-23T11:23:46.671Z,74.50
2019-04-23T11:26:13.886Z,74.60
2019-04-23T11:28:41.655Z,74.60
2019-04-23T11:31:31.654Z,74.40
2019-04-23T11:41:32.295Z,73.60
2019-04-23T11:44:02.352Z,72.00
2019-04-23T11:46:46.234Z,72.20
2019-04-23T11:54:10.217Z,73.70
2019-04-23T11:57:13.080Z,74.30
2019-04-23T11:59:16.082Z,74.90
2019-04-23T12:09:48.756Z,74.40
2019-04-23T12:12:17.231Z,74.30
2019-04-23T12:15:03.627Z,73.80
2019-04-23T12:17:50.891Z,75.40
2019-04-23T12:20:26.718Z,74.10
2019-04-23T12:23:04.244Z,75.00
2019-04-23T12:25:32.462Z,74.70
2019-04-23T12:27:48.415Z,74.80
2019-04-23T12:33:06.983Z,75.20
2019-04-23T12:35:44.040Z,73.10
2019-04-23T12:38:13.970Z,73.90
2019-04-23T12:40:38.269Z,74.30
2019-04-23T12:43:14.565Z,74.30
2019-04-23T12:45:45.803Z,73.40
2019-04-23T12:51:00.480Z,72.60
2019-04-23T12:53:34.775Z,72.50
2019-04-23T12:55:51.245Z,72.40
2019-04-23T12:58:26.868Z,71.60
2019-04-23T13:00:52.780Z,71.50
2019-04-23T13:03:31.405Z,71.00
2019-04-23T13:05:54.056Z,72.20
2019-04-23T13:08:41.372Z,71.80
2019-04-23T13:11:07.983Z,71.70
2019-04-23T13:13:48.448Z,71.80
2019-04-23T13:16:12.352Z,72.50
2019-04-23T13:21:21.776Z,73.20
2019-04-23T13:23:39.188Z,73.60
2019-04-23T13:26:13.408Z,75.00
2019-04-23T13:28:45.314Z,75.20
2019-04-23T13:31:15.147Z,76.00
2019-04-23T13:36:33.960Z,77.40
2019-04-23T13:38:56.662Z,74.50
2019-04-23T13:41:26.091Z,78.10
2019-04-23T13:43:52.666Z,78.90
2019-04-23T13:46:35.651Z,75.60
2019-04-23T13:49:03.139Z,75.70
2019-04-23T13:51:40.419Z,76.00
2019-04-23T13:54:08.205Z,76.20
2019-04-23T13:57:14.471Z,76.70
2019-04-23T13:59:26.355Z,76.70
2019-04-23T14:01:46.665Z,77.30
2019-04-23T14:04:40.311Z,78.60
2019-04-23T14:07:07.827Z,78.30
2019-04-23T14:09:45.484Z,78.50
2019-04-23T14:12:09.123Z,78.00
2019-04-23T14:14:57.977Z,78.40
2019-04-23T14:17:46.737Z,78.60
2019-04-23T14:19:53.731Z,80.30
2019-04-23T14:27:39.398Z,78.00
2019-04-23T14:30:13.282Z,79.30
2019-04-23T14:35:18.749Z,79.00
2019-04-23T14:38:09.819Z,79.70
2019-04-23T14:40:21.724Z,77.80
2019-04-23T14:43:08.843Z,79.20
2019-04-23T14:48:02.591Z,78.20
2019-04-23T14:50:31.974Z,77.40
2019-04-23T14:53:06.789Z,77.10
2019-04-23T14:58:13.217Z,80.30
2019-04-23T15:00:43.148Z,78.00
2019-04-23T15:05:45.899Z,78.60
2019-04-23T15:08:15.576Z,78.20
2019-04-23T15:10:57.303Z,77.70
2019-04-23T15:13:22.862Z,77.50
2019-04-23T15:16:00.743Z,77.80
2019-04-23T15:18:35.241Z,79.70
2019-04-23T15:21:25.410Z,79.00
2019-04-23T15:27:02.505Z,78.90
2019-04-23T15:28:13.216Z,76.10
2019-04-23T15:31:20.155Z,77.30
2019-04-23T15:33:57.316Z,78.20
2019-04-23T15:38:53.634Z,78.50
2019-04-23T15:43:55.003Z,76.80
2019-04-23T15:46:25.364Z,76.90
2019-04-23T15:49:01.122Z,77.20
2019-04-23T15:51:35.425Z,77.90
2019-04-23T15:54:02.580Z,76.30
2019-04-23T15:59:13.557Z,74.80
2019-04-23T16:01:39.550Z,73.90
2019-04-23T16:03:38.284Z,74.40
2019-04-23T16:06:10.849Z,74.60
2019-04-23T16:14:22.745Z,74.00
2019-04-23T16:17:02.123Z,73.60
2019-04-23T16:22:07.356Z,74.00
2019-04-23T16:24:25.191Z,74.10
2019-04-23T16:27:07.128Z,73.90
2019-04-23T16:29:54.208Z,74.20
2019-04-23T16:32:16.694Z,74.50
2019-04-23T16:34:39.396Z,74.10
2019-04-23T16:37:20.215Z,74.00
2019-04-23T16:39:56.082Z,74.10
2019-04-23T16:42:23.635Z,74.40
2019-04-23T16:47:24.549Z,76.00
2019-04-23T16:52:28.743Z,74.90
2019-04-23T16:55:09.289Z,76.30
2019-04-23T16:57:45.951Z,76.00
2019-04-23T17:02:48.261Z,77.60
2019-04-23T17:05:14.575Z,76.70
2019-04-23T17:07:54.025Z,76.50
2019-04-23T17:10:23.947Z,77.10
2019-04-23T17:12:51.893Z,77.80
2019-04-23T17:15:15.123Z,76.90
2019-04-23T17:17:47.868Z,76.60
2019-04-23T17:20:27.272Z,76.30
2019-04-23T17:23:00.521Z,75.90
2019-04-23T17:28:05.595Z,75.70
2019-04-23T17:30:28.316Z,75.50
2019-04-23T17:33:13.847Z,75.50
2019-04-23T17:35:40.972Z,75.50
2019-04-23T17:38:14.912Z,75.80
2019-04-23T17:40:39.366Z,76.20
2019-04-23T17:43:05.885Z,75.40
2019-04-23T17:46:01.143Z,76.30
2019-04-23T17:48:16.066Z,76.70
2019-04-23T17:51:00.364Z,77.10
2019-04-23T17:53:26.937Z,75.30
2019-04-23T17:56:08.683Z,75.00
2019-04-23T17:58:28.621Z,76.20
2019-04-23T18:01:17.015Z,75.00
2019-04-23T18:03:41.414Z,75.00
2019-04-23T18:06:23.331Z,75.80
2019-04-23T18:08:41.502Z,75.70
2019-04-23T18:13:49.809Z,75.30
2019-04-23T18:16:16.163Z,75.60
2019-04-23T18:18:53.217Z,76.30
2019-04-23T18:21:36.050Z,77.00
2019-04-23T18:24:16.747Z,77.80
2019-04-23T18:27:00.598Z,77.60
2019-04-23T18:29:35.211Z,77.30
2019-04-23T18:32:11.554Z,77.60
2019-04-23T18:34:53.835Z,77.50
2019-04-23T18:37:10.596Z,76.90
2019-04-23T18:39:45.044Z,77.00
2019-04-23T18:42:18.914Z,77.10
2019-04-23T18:44:48.497Z,77.30
2019-04-23T18:47:24.906Z,77.00
2019-04-23T18:49:45.403Z,76.90
2019-04-23T18:52:25.986Z,77.00
2019-04-23T18:54:48.967Z,77.20
2019-04-23T18:57:24.994Z,76.30
2019-04-23T19:00:03.010Z,76.10
2019-04-23T19:02:42.699Z,75.80
2019-04-23T19:05:19.160Z,75.80
2019-04-23T19:15:38.063Z,75.70
2019-04-23T19:18:19.220Z,75.90
2019-04-23T19:25:38.758Z,76.70
2019-04-23T19:28:41.206Z,77.10
2019-04-23T19:31:02.084Z,77.90
2019-04-23T19:33:55.288Z,77.60
2019-04-23T19:36:11.341Z,77.50
2019-04-23T19:38:51.092Z,76.90
2019-04-23T19:41:20.944Z,77.10
2019-04-23T19:43:49.260Z,77.20
2019-04-23T19:56:45.077Z,76.20
2019-04-23T19:58:56.678Z,75.90
2019-04-23T20:07:06.144Z,76.60
2019-04-23T20:11:42.689Z,76.70
2019-04-23T20:14:02.443Z,76.50
2019-04-23T20:16:50.573Z,76.20
2019-04-23T20:19:19.262Z,76.70
2019-04-23T20:21:51.067Z,76.40
2019-04-23T20:24:32.219Z,76.70
2019-04-23T20:30:05.386Z,76.80
2019-04-23T20:31:58.238Z,76.90
2019-04-23T20:37:25.801Z,78.70
2019-04-23T20:40:11.494Z,78.90
2019-04-23T20:42:26.898Z,79.50
2019-04-23T20:47:24.477Z,80.10
2019-04-23T20:49:56.805Z,79.90
2019-04-23T20:52:22.995Z,81.40
2019-04-23T20:55:08.358Z,81.70
2019-04-23T21:00:34.107Z,81.00
2019-04-23T21:03:18.389Z,79.70
2019-04-23T21:08:00.822Z,83.00
2019-04-23T21:10:34.539Z,83.60
2019-04-23T21:23:11.210Z,83.70
2019-04-23T21:25:44.576Z,81.50
2019-04-23T21:33:50.780Z,84.00
2019-04-23T21:36:26.464Z,83.90
2019-04-23T21:44:32.407Z,82.30
2019-04-23T21:46:56.634Z,81.80
2019-04-23T21:52:02.583Z,83.20
2019-04-23T21:54:32.552Z,80.90
2019-04-23T21:57:14.563Z,81.30
2019-04-23T21:59:39.099Z,83.20
2019-04-23T22:02:03.861Z,81.10
2019-04-23T22:04:39.584Z,80.60
2019-04-23T22:07:12.034Z,80.60
2019-04-23T22:09:48.421Z,80.40
2019-04-23T22:12:16.959Z,80.80
2019-04-23T22:14:46.844Z,81.20
2019-04-23T22:17:15.353Z,82.50
2019-04-23T22:20:00.545Z,82.10
2019-04-23T22:22:20.333Z,79.80
2019-04-23T22:24:53.376Z,79.70
2019-04-23T22:27:28.324Z,78.60
2019-04-23T22:29:49.215Z,81.80
2019-04-23T22:32:30.795Z,78.80
2019-04-23T22:35:01.151Z,79.60
2019-04-23T22:37:36.523Z,78.60
2019-04-23T22:45:12.365Z,79.60
2019-04-23T22:47:40.933Z,80.90
2019-04-23T22:50:14.457Z,80.10
2019-04-23T22:52:51.743Z,80.30
2019-04-23T22:58:03.139Z,77.30
2019-04-23T23:03:06.373Z,81.00
2019-04-23T23:05:56.344Z,81.40
2019-04-23T23:08:13.354Z,81.70
2019-04-23T23:10:51.919Z,80.50
2019-04-23T23:13:20.613Z,79.60
2019-04-23T23:15:59.539Z,80.00
2019-04-23T23:20:59.566Z,80.60
2019-04-23T23:23:30.083Z,79.90
2019-04-23T23:26:04.323Z,80.40
2019-04-23T23:33:43.007Z,81.60
2019-04-23T23:36:19.849Z,82.10
2019-04-23T23:41:27.026Z,80.80
2019-04-23T23:46:22.171Z,81.50
2019-04-23T23:48:51.324Z,82.00
2019-04-23T23:54:00.297Z,81.40
2019-04-23T23:59:04.310Z,78.00
